createdAt,value
2018-08-24T00:02:10.220Z,4.33
2018-08-24T00:04:38.278Z,4.53
2018-08-24T00:07:06.324Z,4.10
2018-08-24T00:09:34.566Z,3.72
2018-08-24T00:12:04.128Z,4.00
2018-08-24T00:14:32.177Z,3.72
2018-08-24T00:17:00.234Z,3.45
2018-08-24T00:19:28.319Z,3.65
2018-08-24T00:21:56.353Z,4.12
2018-08-24T00:24:24.405Z,3.77
2018-08-24T00:26:52.468Z,4.37
2018-08-24T00:29:20.511Z,3.50
2018-08-24T00:31:48.645Z,4.35
2018-08-24T00:34:16.624Z,4.40
2018-08-24T00:36:44.666Z,3.95
2018-08-24T00:39:19.463Z,4.60
2018-08-24T00:41:47.517Z,4.50
2018-08-24T00:44:15.568Z,3.45
2018-08-24T00:46:43.703Z,3.37
2018-08-24T00:49:11.787Z,3.80
2018-08-24T00:51:39.808Z,3.77
2018-08-24T00:54:07.864Z,3.65
2018-08-24T00:56:35.939Z,3.58
2018-08-24T00:59:03.987Z,3.80
2018-08-24T01:01:32.045Z,4.15
2018-08-24T01:04:00.096Z,3.25
2018-08-24T01:06:28.148Z,4.33
2018-08-24T01:08:56.262Z,3.67
2018-08-24T01:11:29.774Z,4.42
2018-08-24T01:13:57.816Z,4.10
2018-08-24T01:16:31.172Z,3.90
2018-08-24T01:18:59.293Z,3.40
2018-08-24T01:21:27.440Z,3.87
2018-08-24T01:23:55.858Z,4.90
2018-08-24T01:26:24.945Z,3.77
2018-08-24T01:28:53.549Z,4.15
2018-08-24T01:31:21.605Z,4.95
2018-08-24T01:33:49.658Z,4.05
2018-08-24T01:36:17.713Z,3.40
2018-08-24T01:38:45.778Z,3.70
2018-08-24T01:41:13.816Z,3.92
2018-08-24T01:43:41.941Z,4.05
2018-08-24T01:46:11.156Z,4.05
2018-08-24T01:48:39.968Z,3.77
2018-08-24T01:51:08.017Z,4.72
2018-08-24T01:53:36.080Z,3.90
2018-08-24T01:56:04.122Z,3.65
2018-08-24T01:58:32.173Z,4.30
2018-08-24T02:01:00.227Z,3.83
2018-08-24T02:03:28.276Z,4.15
2018-08-24T02:06:01.893Z,3.77
2018-08-24T02:08:29.954Z,3.60
2018-08-24T02:10:57.997Z,4.42
2018-08-24T02:13:31.252Z,3.95
2018-08-24T02:15:59.296Z,4.00
2018-08-24T02:18:32.664Z,4.00
2018-08-24T02:21:06.323Z,4.03
2018-08-24T02:23:34.444Z,3.50
2018-08-24T02:26:02.482Z,4.30
2018-08-24T02:28:30.532Z,4.80
2018-08-24T02:31:01.035Z,4.62
2018-08-24T02:33:33.703Z,4.20
2018-08-24T02:36:01.713Z,5.03
2018-08-24T02:38:29.771Z,3.60
2018-08-24T02:40:57.814Z,4.10
2018-08-24T02:43:25.856Z,4.70
2018-08-24T02:45:53.904Z,4.45
2018-08-24T02:48:22.060Z,3.92
2018-08-24T02:50:50.164Z,3.20
2018-08-24T02:53:18.208Z,3.83
2018-08-24T02:55:46.273Z,4.22
2018-08-24T02:58:14.321Z,3.40
2018-08-24T03:00:42.473Z,4.37
2018-08-24T03:03:10.504Z,3.90
2018-08-24T03:05:38.687Z,4.80
2018-08-24T03:08:06.783Z,4.75
2018-08-24T03:10:34.824Z,4.90
2018-08-24T03:13:02.870Z,4.67
2018-08-24T03:15:30.944Z,4.85
2018-08-24T03:17:58.993Z,4.97
2018-08-24T03:20:27.045Z,4.78
2018-08-24T03:22:55.544Z,4.75
2018-08-24T03:25:23.569Z,5.10
2018-08-24T03:27:51.629Z,4.53
2018-08-24T03:30:19.687Z,4.10
2018-08-24T03:32:47.782Z,3.50
2018-08-24T03:35:15.819Z,3.00
2018-08-24T03:37:43.857Z,4.65
2018-08-24T03:40:11.932Z,5.05
2018-08-24T03:42:39.962Z,5.15
2018-08-24T03:45:08.008Z,6.20
2018-08-24T03:47:36.104Z,6.33
2018-08-24T03:50:04.177Z,5.50
2018-08-24T03:52:32.236Z,6.20
2018-08-24T03:55:00.445Z,5.92
2018-08-24T03:57:28.478Z,5.80
2018-08-24T03:59:57.269Z,4.95
2018-08-24T04:02:25.419Z,5.62
2018-08-24T04:04:53.499Z,5.08
2018-08-24T04:07:21.584Z,4.97
2018-08-24T04:09:49.644Z,6.17
2018-08-24T04:12:17.696Z,5.53
2018-08-24T04:14:45.748Z,5.83
2018-08-24T04:17:19.300Z,4.95
2018-08-24T04:19:47.396Z,6.03
2018-08-24T04:22:15.452Z,6.35
2018-08-24T04:24:43.526Z,5.78
2018-08-24T04:27:11.587Z,5.60
2018-08-24T04:29:39.671Z,5.33
2018-08-24T04:32:07.701Z,5.90
2018-08-24T04:34:35.764Z,5.45
2018-08-24T04:37:03.824Z,6.10
2018-08-24T04:39:31.908Z,6.87
2018-08-24T04:41:59.946Z,6.40
2018-08-24T04:44:28.079Z,5.90
2018-08-24T04:46:56.108Z,6.35
2018-08-24T04:49:24.152Z,5.65
2018-08-24T04:51:52.204Z,6.95
2018-08-24T04:54:20.248Z,5.62
2018-08-24T04:56:48.305Z,6.92
2018-08-24T04:59:16.382Z,6.33
2018-08-24T05:01:44.460Z,6.40
2018-08-24T05:04:12.498Z,5.33
2018-08-24T05:06:40.556Z,5.90
2018-08-24T05:09:09.752Z,6.75
2018-08-24T05:11:38.469Z,6.03
2018-08-24T05:14:07.017Z,5.75
2018-08-24T05:16:35.229Z,5.20
2018-08-24T05:19:03.274Z,4.97
2018-08-24T05:21:31.447Z,5.53
2018-08-24T05:26:36.176Z,4.35
2018-08-24T05:29:04.205Z,4.53
2018-08-24T05:31:32.257Z,4.00
2018-08-24T05:34:00.301Z,3.70
2018-08-24T05:36:28.486Z,4.87
2018-08-24T05:38:56.595Z,3.87
2018-08-24T05:41:24.727Z,4.20
2018-08-24T05:43:52.755Z,3.77
2018-08-24T05:46:20.803Z,3.60
2018-08-24T05:48:48.899Z,3.80
2018-08-24T05:51:16.951Z,3.30
2018-08-24T05:53:44.993Z,2.83
2018-08-24T05:56:13.049Z,3.67
2018-08-24T05:58:41.097Z,3.58
2018-08-24T06:01:09.172Z,3.00
2018-08-24T06:03:37.239Z,2.60
2018-08-24T06:06:05.537Z,3.72
2018-08-24T06:08:33.592Z,2.50
2018-08-24T06:11:02.413Z,3.10
2018-08-24T06:13:30.440Z,2.25
2018-08-24T06:15:58.551Z,2.58
2018-08-24T06:18:26.559Z,2.62
2018-08-24T06:20:54.630Z,2.52
2018-08-24T06:23:22.734Z,1.60
2018-08-24T06:25:50.821Z,1.40
2018-08-24T06:28:18.852Z,1.62
2018-08-24T06:30:46.917Z,1.80
2018-08-24T06:33:14.973Z,0.95
2018-08-24T06:35:43.028Z,1.60
2018-08-24T06:38:11.091Z,1.45
2018-08-24T06:40:39.148Z,1.62
2018-08-24T06:43:07.223Z,1.80
2018-08-24T06:45:35.300Z,1.90
2018-08-24T06:48:03.344Z,1.50
2018-08-24T06:50:31.396Z,1.77
2018-08-24T06:52:59.472Z,1.60
2018-08-24T06:55:27.521Z,1.67
2018-08-24T06:57:55.582Z,1.45
2018-08-24T07:00:29.057Z,1.52
2018-08-24T07:02:57.270Z,1.30
2018-08-24T07:05:25.325Z,1.20
2018-08-24T07:07:53.698Z,1.15
2018-08-24T07:10:21.764Z,1.25
2018-08-24T07:12:49.866Z,1.30
2018-08-24T07:15:17.880Z,1.50
2018-08-24T07:17:51.353Z,1.30
2018-08-24T07:20:19.417Z,1.57
2018-08-24T07:22:47.737Z,1.65
2018-08-24T07:25:15.988Z,1.30
2018-08-24T07:27:44.001Z,1.40
2018-08-24T07:30:12.052Z,1.00
2018-08-24T07:32:40.282Z,1.60
2018-08-24T07:35:08.324Z,1.32
2018-08-24T07:37:36.385Z,1.35
2018-08-24T07:40:04.453Z,1.30
2018-08-24T07:42:32.540Z,1.20
2018-08-24T07:45:00.612Z,1.50
2018-08-24T07:47:28.678Z,1.30
2018-08-24T07:49:56.725Z,1.50
2018-08-24T07:52:24.793Z,1.45
2018-08-24T07:54:52.856Z,1.65
2018-08-24T07:57:20.905Z,1.70
2018-08-24T07:59:49.172Z,1.87
2018-08-24T08:02:17.237Z,1.72
2018-08-24T08:04:45.301Z,2.15
2018-08-24T08:07:13.356Z,2.27
2018-08-24T08:09:41.644Z,1.80
2018-08-24T08:12:09.700Z,1.67
2018-08-24T08:14:42.000Z,2.40
2018-08-24T08:17:10.092Z,1.98
2018-08-24T08:19:38.144Z,1.92
2018-08-24T08:24:40.699Z,1.80
2018-08-24T08:27:08.688Z,2.87
2018-08-24T08:29:42.359Z,2.08
2018-08-24T08:32:10.418Z,3.20
2018-08-24T08:34:43.833Z,2.90
2018-08-24T08:37:11.897Z,3.08
2018-08-24T08:39:39.953Z,2.98
2018-08-24T08:42:08.013Z,2.58
2018-08-24T08:44:36.086Z,3.10
2018-08-24T08:47:04.136Z,3.05
2018-08-24T08:49:32.176Z,2.40
2018-08-24T08:52:00.232Z,2.50
2018-08-24T08:54:28.287Z,3.20
2018-08-24T08:56:56.360Z,2.83
2018-08-24T08:59:24.436Z,2.72
2018-08-24T09:01:52.493Z,2.95
2018-08-24T09:04:20.543Z,3.70
2018-08-24T09:06:48.646Z,2.85
2018-08-24T09:09:16.709Z,2.08
2018-08-24T09:11:44.763Z,2.98
2018-08-24T09:14:13.375Z,2.95
2018-08-24T09:16:41.442Z,2.67
2018-08-24T09:19:15.108Z,2.25
2018-08-24T09:21:48.718Z,2.87
2018-08-24T09:24:22.192Z,3.00
2018-08-24T09:26:55.641Z,3.60
2018-08-24T09:29:26.666Z,3.60
2018-08-24T09:31:55.352Z,3.72
2018-08-24T09:34:23.570Z,4.03
2018-08-24T09:36:51.620Z,3.30
2018-08-24T09:39:25.307Z,3.90
2018-08-24T09:41:55.062Z,4.25
2018-08-24T09:44:23.120Z,4.50
2018-08-24T09:46:56.601Z,4.65
2018-08-24T09:49:26.820Z,3.60
2018-08-24T09:51:54.894Z,3.92
2018-08-24T09:54:22.956Z,3.45
2018-08-24T09:56:51.065Z,4.83
2018-08-24T09:59:19.077Z,3.67
2018-08-24T10:01:52.605Z,3.80
2018-08-24T10:04:25.974Z,3.70
2018-08-24T10:06:59.472Z,3.65
2018-08-24T10:09:27.528Z,3.60
2018-08-24T10:11:55.580Z,3.58
2018-08-24T10:14:23.637Z,3.40
2018-08-24T10:16:51.693Z,3.47
2018-08-24T10:19:19.756Z,3.50
2018-08-24T10:21:47.809Z,3.42
2018-08-24T10:24:15.875Z,3.35
2018-08-24T10:26:43.934Z,3.85
2018-08-24T10:29:12.083Z,4.25
2018-08-24T10:31:40.107Z,3.83
2018-08-24T10:34:08.159Z,3.80
2018-08-24T10:36:36.221Z,3.62
2018-08-24T10:39:07.398Z,3.92
2018-08-24T10:41:35.449Z,3.40
2018-08-24T10:44:03.847Z,3.10
2018-08-24T10:46:31.896Z,3.47
2018-08-24T10:48:59.964Z,4.03
2018-08-24T10:51:28.028Z,3.75
2018-08-24T10:53:56.104Z,3.12
2018-08-24T10:56:24.152Z,3.20
2018-08-24T10:58:52.206Z,3.08
2018-08-24T11:01:20.258Z,3.47
2018-08-24T11:03:48.382Z,3.67
2018-08-24T11:06:16.386Z,3.25
2018-08-24T11:08:44.437Z,3.70
2018-08-24T11:11:12.496Z,3.37
2018-08-24T11:13:40.549Z,3.65
2018-08-24T11:16:08.605Z,3.92
2018-08-24T11:18:36.665Z,3.25
2018-08-24T11:21:04.726Z,3.20
2018-08-24T11:23:32.771Z,3.35
2018-08-24T11:26:00.838Z,3.65
2018-08-24T11:28:28.932Z,3.55
2018-08-24T11:30:56.943Z,3.52
2018-08-24T11:33:24.993Z,3.40
2018-08-24T11:35:53.077Z,3.20
2018-08-24T11:38:21.116Z,3.62
2018-08-24T11:40:49.206Z,3.00
2018-08-24T11:43:17.228Z,3.10
2018-08-24T11:45:45.286Z,3.17
2018-08-24T11:48:13.360Z,3.40
2018-08-24T11:50:41.417Z,3.12
2018-08-24T11:53:09.477Z,3.00
2018-08-24T11:55:37.527Z,3.87
2018-08-24T11:58:05.576Z,3.70
2018-08-24T12:00:34.544Z,3.90
2018-08-24T12:03:03.341Z,3.85
2018-08-24T12:05:31.737Z,3.70
2018-08-24T12:08:00.014Z,3.20
2018-08-24T12:10:27.943Z,3.72
2018-08-24T12:12:56.517Z,3.58
2018-08-24T12:15:24.599Z,3.30
2018-08-24T12:17:53.093Z,3.98
2018-08-24T12:20:21.268Z,2.58
2018-08-24T12:22:49.329Z,3.15
2018-08-24T12:25:17.536Z,3.33
2018-08-24T12:27:45.595Z,3.60
2018-08-24T12:30:13.651Z,3.65
2018-08-24T12:32:41.704Z,3.60
2018-08-24T12:35:09.756Z,3.22
2018-08-24T12:37:45.036Z,3.90
2018-08-24T12:40:13.627Z,3.80
2018-08-24T12:42:41.676Z,3.45
2018-08-24T12:45:09.745Z,3.22
2018-08-24T12:47:37.990Z,4.00
2018-08-24T12:50:06.730Z,3.25
2018-08-24T12:52:34.775Z,3.45
2018-08-24T12:55:02.874Z,3.50
2018-08-24T12:57:31.244Z,3.75
2018-08-24T13:00:00.140Z,3.55
2018-08-24T13:02:28.100Z,4.03
2018-08-24T13:04:56.417Z,3.65
2018-08-24T13:07:24.609Z,2.62
2018-08-24T13:09:52.897Z,2.90
2018-08-24T13:12:20.957Z,4.42
2018-08-24T13:14:49.006Z,2.87
2018-08-24T13:17:17.172Z,3.30
2018-08-24T13:19:45.221Z,2.70
2018-08-24T13:22:13.292Z,3.25
2018-08-24T13:24:41.347Z,3.47
2018-08-24T13:27:09.427Z,2.98
2018-08-24T13:29:37.478Z,3.37
2018-08-24T13:32:05.808Z,3.00
2018-08-24T13:34:33.861Z,2.70
2018-08-24T13:37:01.953Z,3.25
2018-08-24T13:39:30.063Z,3.50
2018-08-24T13:41:58.136Z,3.30
2018-08-24T13:44:26.176Z,2.70
2018-08-24T13:46:54.283Z,2.50
2018-08-24T13:49:22.347Z,2.70
2018-08-24T13:51:50.401Z,2.45
2018-08-24T13:54:18.498Z,3.05
2018-08-24T13:56:46.803Z,2.58
2018-08-24T13:59:14.856Z,2.40
2018-08-24T14:01:42.914Z,2.70
2018-08-24T14:04:10.986Z,2.50
2018-08-24T14:06:39.081Z,2.90
2018-08-24T14:09:08.681Z,2.12
2018-08-24T14:11:36.962Z,2.33
2018-08-24T14:14:05.045Z,3.22
2018-08-24T14:16:33.136Z,2.30
2018-08-24T14:19:01.209Z,2.85
2018-08-24T14:21:29.252Z,2.45
2018-08-24T14:23:57.317Z,2.67
2018-08-24T14:26:25.390Z,2.00
2018-08-24T14:28:53.432Z,2.27
2018-08-24T14:31:21.476Z,2.50
2018-08-24T14:33:49.528Z,2.20
2018-08-24T14:36:17.589Z,2.00
2018-08-24T14:38:45.652Z,2.65
2018-08-24T14:41:13.760Z,2.20
2018-08-24T14:43:41.773Z,1.90
2018-08-24T14:46:09.827Z,2.10
2018-08-24T14:48:37.897Z,2.35
2018-08-24T14:51:05.976Z,1.92
2018-08-24T14:53:34.073Z,2.10
2018-08-24T14:56:02.129Z,2.30
2018-08-24T14:58:30.193Z,2.10
2018-08-24T15:00:58.250Z,1.67
2018-08-24T15:03:26.309Z,2.40
2018-08-24T15:05:54.364Z,2.40
2018-08-24T15:08:22.424Z,2.45
2018-08-24T15:10:50.528Z,1.60
2018-08-24T15:13:18.548Z,2.15
2018-08-24T15:15:46.605Z,1.98
2018-08-24T15:18:14.677Z,3.02
2018-08-24T15:20:42.740Z,2.50
2018-08-24T15:23:10.934Z,1.95
2018-08-24T15:25:38.985Z,2.10
2018-08-24T15:28:07.041Z,1.67
2018-08-24T15:30:35.103Z,2.95
2018-08-24T15:33:03.171Z,1.95
2018-08-24T15:35:31.252Z,2.77
2018-08-24T15:37:59.313Z,2.25
2018-08-24T15:40:27.387Z,3.33
2018-08-24T15:42:55.451Z,2.60
2018-08-24T15:45:23.508Z,2.40
2018-08-24T15:47:51.573Z,2.40
2018-08-24T15:50:19.634Z,2.47
2018-08-24T15:52:48.636Z,2.15
2018-08-24T15:55:16.684Z,2.17
2018-08-24T15:57:44.761Z,2.15
2018-08-24T16:00:12.820Z,2.20
2018-08-24T16:02:40.863Z,2.30
2018-08-24T16:05:08.913Z,2.05
2018-08-24T16:07:38.212Z,2.35
2018-08-24T16:10:07.176Z,2.40
2018-08-24T16:12:35.380Z,2.90
2018-08-24T16:15:03.424Z,2.55
2018-08-24T16:17:31.480Z,2.12
2018-08-24T16:20:00.023Z,2.62
2018-08-24T16:22:28.093Z,2.22
2018-08-24T16:24:56.152Z,1.95
2018-08-24T16:27:24.900Z,2.37
2018-08-24T16:29:55.044Z,2.85
2018-08-24T16:32:23.097Z,1.90
2018-08-24T16:34:51.509Z,2.60
2018-08-24T16:37:19.582Z,2.40
2018-08-24T16:39:47.639Z,2.15
2018-08-24T16:42:15.686Z,2.55
2018-08-24T16:44:43.869Z,2.30
2018-08-24T16:47:11.921Z,2.52
2018-08-24T16:49:40.029Z,2.62
2018-08-24T16:52:08.078Z,2.40
2018-08-24T16:54:36.141Z,2.17
2018-08-24T16:57:04.198Z,2.65
2018-08-24T16:59:32.249Z,2.35
2018-08-24T17:02:00.316Z,2.47
2018-08-24T17:04:28.388Z,2.72
2018-08-24T17:06:56.436Z,2.40
2018-08-24T17:09:24.501Z,2.62
2018-08-24T17:11:52.562Z,2.47
2018-08-24T17:14:20.625Z,2.30
2018-08-24T17:16:48.680Z,2.65
2018-08-24T17:19:16.749Z,2.05
2018-08-24T17:21:44.801Z,2.62
2018-08-24T17:24:13.296Z,2.60
2018-08-24T17:26:41.326Z,2.42
2018-08-24T17:29:09.376Z,2.45
2018-08-24T17:31:37.442Z,2.62
2018-08-24T17:34:05.629Z,2.77
2018-08-24T17:36:33.724Z,3.47
2018-08-24T17:39:01.789Z,3.35
2018-08-24T17:41:29.832Z,2.87
2018-08-24T17:43:57.896Z,3.40
2018-08-24T17:46:25.936Z,2.65
2018-08-24T17:48:53.997Z,2.40
2018-08-24T17:51:22.054Z,2.62
2018-08-24T17:53:50.122Z,2.47
2018-08-24T17:56:18.185Z,2.40
2018-08-24T17:58:46.293Z,2.33
2018-08-24T18:01:14.304Z,2.52
2018-08-24T18:03:42.361Z,1.90
2018-08-24T18:06:10.412Z,2.35
2018-08-24T18:08:38.474Z,3.58
2018-08-24T18:11:06.546Z,2.60
2018-08-24T18:13:34.597Z,2.55
2018-08-24T18:16:02.649Z,2.40
2018-08-24T18:18:30.696Z,2.27
2018-08-24T18:20:58.762Z,2.77
2018-08-24T18:23:26.822Z,2.33
2018-08-24T18:25:54.873Z,2.33
2018-08-24T18:28:22.938Z,2.10
2018-08-24T18:30:51.001Z,2.20
2018-08-24T18:33:19.080Z,2.40
2018-08-24T18:35:47.157Z,2.60
2018-08-24T18:38:15.225Z,2.65
2018-08-24T18:40:43.300Z,2.30
2018-08-24T18:43:11.347Z,2.37
2018-08-24T18:45:39.393Z,2.00
2018-08-24T18:48:07.448Z,2.10
2018-08-24T18:50:35.516Z,2.83
2018-08-24T18:53:03.550Z,2.58
2018-08-24T18:55:31.625Z,2.22
2018-08-24T18:57:59.714Z,2.05
2018-08-24T19:00:34.301Z,2.35
2018-08-24T19:03:02.361Z,2.72
2018-08-24T19:05:30.500Z,2.00
2018-08-24T19:08:04.045Z,2.25
2018-08-24T19:10:36.373Z,2.55
2018-08-24T19:13:04.433Z,2.25
2018-08-24T19:15:32.506Z,2.25
2018-08-24T19:18:05.989Z,2.25
2018-08-24T19:20:39.611Z,2.60
2018-08-24T19:23:07.606Z,2.60
2018-08-24T19:25:35.673Z,2.15
2018-08-24T19:28:09.193Z,2.30
2018-08-24T19:30:37.254Z,1.95
2018-08-24T19:33:05.300Z,2.15
2018-08-24T19:35:33.363Z,2.37
2018-08-24T19:38:01.533Z,1.67
2018-08-24T19:40:35.184Z,1.82
2018-08-24T19:43:03.233Z,1.82
2018-08-24T19:45:31.283Z,1.95
2018-08-24T19:48:04.807Z,1.65
2018-08-24T19:50:32.804Z,1.70
2018-08-24T19:53:00.847Z,1.77
2018-08-24T19:55:28.946Z,2.02
2018-08-24T19:58:02.345Z,1.60
2018-08-24T20:00:30.444Z,2.15
2018-08-24T20:02:58.502Z,1.82
2018-08-24T20:05:26.553Z,1.50
2018-08-24T20:08:00.168Z,1.70
2018-08-24T20:10:28.866Z,1.52
2018-08-24T20:12:56.962Z,1.70
2018-08-24T20:15:30.452Z,2.00
2018-08-24T20:17:58.546Z,1.60
2018-08-24T20:20:26.600Z,2.30
2018-08-24T20:22:54.665Z,1.87
2018-08-24T20:25:22.732Z,1.82
2018-08-24T20:27:50.784Z,1.70
2018-08-24T20:30:18.854Z,1.82
2018-08-24T20:32:46.913Z,1.85
2018-08-24T20:35:14.972Z,1.65
2018-08-24T20:37:43.032Z,1.90
2018-08-24T20:40:11.170Z,1.80
2018-08-24T20:42:39.178Z,1.85
2018-08-24T20:45:07.245Z,1.52
2018-08-24T20:47:35.305Z,1.85
2018-08-24T20:50:03.355Z,2.37
2018-08-24T20:52:31.410Z,1.85
2018-08-24T20:54:59.470Z,1.52
2018-08-24T20:57:27.527Z,2.20
2018-08-24T20:59:55.573Z,2.17
2018-08-24T21:02:23.629Z,2.17
2018-08-24T21:04:51.670Z,1.67
2018-08-24T21:07:19.730Z,1.60
2018-08-24T21:09:47.780Z,2.20
2018-08-24T21:12:15.850Z,1.80
2018-08-24T21:14:43.915Z,1.87
2018-08-24T21:17:11.973Z,1.92
2018-08-24T21:19:40.046Z,2.05
2018-08-24T21:22:08.247Z,2.20
2018-08-24T21:24:36.289Z,2.05
2018-08-24T21:27:04.382Z,2.42
2018-08-24T21:29:32.432Z,2.08
2018-08-24T21:32:00.501Z,2.30
2018-08-24T21:34:28.552Z,2.25
2018-08-24T21:36:56.617Z,1.80
2018-08-24T21:39:24.666Z,2.35
2018-08-24T21:41:52.755Z,1.70
2018-08-24T21:44:20.780Z,2.05
2018-08-24T21:46:48.843Z,2.20
2018-08-24T21:49:16.918Z,1.90
2018-08-24T21:51:44.968Z,2.15
2018-08-24T21:54:13.033Z,2.02
2018-08-24T21:56:41.079Z,1.80
2018-08-24T21:59:09.149Z,1.90
2018-08-24T22:01:37.203Z,1.92
2018-08-24T22:04:05.261Z,2.00
2018-08-24T22:06:33.321Z,2.60
2018-08-24T22:09:01.378Z,2.00
2018-08-24T22:11:29.432Z,1.77
2018-08-24T22:13:57.505Z,2.00
2018-08-24T22:16:25.563Z,1.90
2018-08-24T22:18:53.612Z,2.02
2018-08-24T22:21:21.656Z,2.02
2018-08-24T22:23:49.718Z,1.95
2018-08-24T22:26:17.776Z,1.57
2018-08-24T22:28:45.845Z,1.85
2018-08-24T22:31:13.907Z,2.20
2018-08-24T22:33:41.961Z,1.82
2018-08-24T22:36:10.004Z,1.90
2018-08-24T22:38:38.085Z,2.00
2018-08-24T22:41:06.413Z,2.27
2018-08-24T22:43:36.456Z,2.27
2018-08-24T22:46:05.154Z,1.75
2018-08-24T22:48:33.777Z,2.08
2018-08-24T22:51:02.142Z,1.80
2018-08-24T22:53:30.251Z,1.65
2018-08-24T22:55:58.308Z,1.90
2018-08-24T22:58:26.361Z,2.67
2018-08-24T23:00:54.407Z,1.80
2018-08-24T23:03:22.458Z,1.77
2018-08-24T23:05:50.514Z,1.90
2018-08-24T23:08:18.576Z,1.90
2018-08-24T23:10:46.631Z,2.02
2018-08-24T23:13:14.688Z,2.08
2018-08-24T23:15:42.856Z,1.90
2018-08-24T23:18:10.904Z,3.12
2018-08-24T23:20:38.976Z,1.90
2018-08-24T23:23:07.074Z,1.62
2018-08-24T23:25:35.145Z,1.65
2018-08-24T23:28:03.204Z,2.10
2018-08-24T23:30:31.267Z,1.80
2018-08-24T23:32:59.323Z,1.90
2018-08-24T23:35:27.368Z,2.30
2018-08-24T23:37:55.436Z,1.82
2018-08-24T23:40:23.493Z,2.17
2018-08-24T23:42:51.576Z,2.10
2018-08-24T23:45:19.633Z,2.02
2018-08-24T23:47:47.726Z,1.90
2018-08-24T23:50:15.780Z,2.05
2018-08-24T23:52:43.845Z,1.92
2018-08-24T23:55:11.908Z,1.62
2018-08-24T23:57:40.860Z,1.60
